Time;durP1;ratioP1;P1;durP2;ratioP2;P2;SDS_P1;SDS_P2;PMS_P1;PMS_P2;Temp;Humidity;BMP_temperature;BMP_pressure;BME280_temperature;BME280_humidity;BME280_pressure;Samples;Min_cycle;Max_cycle;Signal;HPM_P1;HPM_P2
2024/01/18 00:00:28;;;;;;;11.93;6.75;;;;;;;-3.28;100.00;99317.81;4978960;28;20053;-78
2024/01/18 00:02:56;;;;;;;9.43;6.20;;;;;;;-3.30;100.00;99317.75;5026020;28;20502;-79
2024/01/18 00:05:23;;;;;;;9.15;5.53;;;;;;;-3.31;100.00;99321.13;5015740;28;20042;-78
2024/01/18 00:07:51;;;;;;;9.38;5.38;;;;;;;-3.31;100.00;99328.00;4998843;28;20049;-76
2024/01/18 00:10:23;;;;;;;7.78;4.90;;;;;;;-3.32;100.00;99327.13;5012950;28;20042;-78
2024/01/18 00:12:50;;;;;;;10.77;4.82;;;;;;;-3.31;100.00;99326.28;5007184;28;20045;-78
2024/01/18 00:15:18;;;;;;;9.43;4.85;;;;;;;-3.31;100.00;99326.28;4968673;28;20053;-78
2024/01/18 00:17:45;;;;;;;6.70;4.38;;;;;;;-3.30;100.00;99335.78;5008934;28;20033;-78
2024/01/18 00:20:13;;;;;;;6.57;4.40;;;;;;;-3.31;100.00;99331.44;5006741;28;20060;-78
2024/01/18 00:22:40;;;;;;;5.95;3.47;;;;;;;-3.34;100.00;99339.94;4992006;28;20068;-78
2024/01/18 00:25:08;;;;;;;5.18;3.55;;;;;;;-3.35;100.00;99334.75;4996682;28;20041;-78
2024/01/18 00:27:35;;;;;;;7.05;3.55;;;;;;;-3.38;100.00;99337.22;5009089;28;20505;-78
2024/01/18 00:30:03;;;;;;;4.40;3.25;;;;;;;-3.39;100.00;99340.63;5024951;28;20746;-78
2024/01/18 00:32:31;;;;;;;5.80;3.78;;;;;;;-3.42;100.00;99345.66;4988723;28;20863;-78
2024/01/18 00:34:58;;;;;;;9.13;3.30;;;;;;;-3.43;100.00;99347.34;5025773;28;20038;-78
2024/01/18 00:37:25;;;;;;;7.28;3.40;;;;;;;-3.45;100.00;99358.44;4983646;28;20057;-78
2024/01/18 00:39:53;;;;;;;4.35;2.97;;;;;;;-3.43;100.00;99369.66;5000033;28;20053;-78
2024/01/18 00:42:20;;;;;;;6.40;3.40;;;;;;;-3.44;100.00;99363.66;4988932;28;20424;-77
2024/01/18 00:44:47;;;;;;;4.03;2.70;;;;;;;-3.45;100.00;99364.47;5007917;28;20041;-77
2024/01/18 00:47:15;;;;;;;5.45;2.95;;;;;;;-3.45;100.00;99368.75;4985541;28;20769;-77
2024/01/18 00:49:43;;;;;;;4.63;2.67;;;;;;;-3.46;100.00;99372.13;5024664;28;20139;-77
2024/01/18 00:52:11;;;;;;;3.47;2.33;;;;;;;-3.49;100.00;99372.91;5003856;28;20041;-77
2024/01/18 00:54:38;;;;;;;2.70;2.38;;;;;;;-3.50;100.00;99376.28;4998123;28;20038;-77
2024/01/18 00:57:05;;;;;;;5.63;2.05;;;;;;;-3.50;100.00;99372.84;5011021;28;20041;-77
2024/01/18 00:59:33;;;;;;;1.92;1.70;;;;;;;-3.50;100.00;99380.56;5007246;28;20045;-77
2024/01/18 01:02:00;;;;;;;5.25;1.70;;;;;;;-3.51;100.00;99387.41;4966444;28;20076;-76
2024/01/18 01:04:28;;;;;;;2.63;1.42;;;;;;;-3.48;100.00;99389.22;5005073;28;20426;-76
2024/01/18 01:06:55;;;;;;;4.30;1.95;;;;;;;-3.47;100.00;99403.88;5023479;28;20049;-78
2024/01/18 01:09:24;;;;;;;1.88;1.40;;;;;;;-3.46;100.00;99400.44;4992227;28;20049;-76
2024/01/18 01:11:52;;;;;;;2.65;1.33;;;;;;;-3.46;100.00;99400.44;4996425;28;20053;-77
2024/01/18 01:14:19;;;;;;;2.15;1.00;;;;;;;-3.46;100.00;99400.44;5022146;28;20379;-76
2024/01/18 01:16:46;;;;;;;2.33;1.20;;;;;;;-3.47;100.00;99409.88;4969056;28;20049;-76
2024/01/18 01:19:14;;;;;;;2.97;1.17;;;;;;;-3.47;100.00;99406.44;5002708;28;20053;-76
2024/01/18 01:21:41;;;;;;;2.78;1.00;;;;;;;-3.46;100.00;99419.38;5006386;28;20414;-77
2024/01/18 01:24:08;;;;;;;4.60;1.27;;;;;;;-3.45;100.00;99404.78;5012850;28;20052;-78
2024/01/18 01:26:36;;;;;;;3.83;2.55;;;;;;;-3.45;100.00;99410.81;5007570;28;20052;-77
2024/01/18 01:29:04;;;;;;;2.05;0.93;;;;;;;-3.43;100.00;99411.75;4980449;28;20050;-77
2024/01/18 01:31:32;;;;;;;4.00;1.30;;;;;;;-3.43;100.00;99426.34;5020014;28;20406;-77
2024/01/18 01:33:59;;;;;;;2.15;1.40;;;;;;;-3.42;100.00;99421.25;4968052;28;20042;-77
2024/01/18 01:36:27;;;;;;;2.50;1.10;;;;;;;-3.40;100.00;99424.75;5006196;28;20049;-77
2024/01/18 01:38:55;;;;;;;3.80;0.90;;;;;;;-3.36;100.00;99436.03;5003485;28;20065;-76
2024/01/18 01:41:23;;;;;;;4.78;1.55;;;;;;;-3.31;100.00;99434.47;4983085;28;20061;-77
2024/01/18 01:43:57;;;;;;;1.55;1.10;;;;;;;-3.22;100.00;99447.69;4981923;28;20495;-77
2024/01/18 01:46:26;;;;;;;9.05;1.60;;;;;;;-3.13;100.00;99447.16;4991717;28;20056;-77
2024/01/18 01:49:00;;;;;;;1.85;1.30;;;;;;;-3.02;100.00;99463.00;4965887;28;20064;-77
2024/01/18 01:51:36;;;;;;;1.73;0.80;;;;;;;-2.94;100.00;99457.28;5023608;28;20422;-77
2024/01/18 01:54:04;;;;;;;3.25;1.15;;;;;;;-2.85;100.00;99467.03;5017136;28;20471;-77
2024/01/18 01:56:34;;;;;;;3.25;0.95;;;;;;;-2.76;100.00;99463.88;4992264;28;20045;-77
2024/01/18 01:59:07;;;;;;;1.05;0.90;;;;;;;-2.65;100.00;99480.59;5013842;28;20048;-77
2024/01/18 02:01:37;;;;;;;4.43;1.48;;;;;;;-2.53;100.00;99475.00;5024352;28;20049;-77
2024/01/18 02:04:04;;;;;;;5.10;0.80;;;;;;;-2.42;100.00;99473.66;4971810;28;20053;-77
2024/01/18 02:06:34;;;;;;;8.70;1.30;;;;;;;-2.31;100.00;99474.00;5025184;28;20060;-77
2024/01/18 02:09:02;;;;;;;1.20;0.82;;;;;;;-2.21;100.00;99462.25;5026530;28;20826;-77
2024/01/18 02:11:30;;;;;;;3.35;0.90;;;;;;;-2.14;100.00;99464.22;4998811;28;20420;-77
2024/01/18 02:13:58;;;;;;;1.02;0.88;;;;;;;-2.09;100.00;99473.00;4996738;28;20490;-77
2024/01/18 02:16:25;;;;;;;1.67;0.98;;;;;;;-2.06;100.00;99473.09;5009255;28;20454;-77
2024/01/18 02:18:53;;;;;;;2.38;0.70;;;;;;;-2.07;100.00;99458.44;5006760;28;20045;-77
2024/01/18 02:21:20;;;;;;;2.58;0.70;;;;;;;-2.07;100.00;99473.03;4977085;28;20045;-77
2024/01/18 02:23:57;;;;;;;3.00;0.85;;;;;;;-2.12;100.00;99470.31;5025948;28;20045;-78
2024/01/18 02:26:25;;;;;;;1.85;0.70;;;;;;;-2.13;100.00;99465.13;5005409;28;20056;-77
2024/01/18 02:28:57;;;;;;;3.88;0.90;;;;;;;-2.17;100.00;99470.16;5007316;28;20060;-78
2024/01/18 02:31:24;;;;;;;2.78;0.80;;;;;;;-2.23;100.00;99475.16;5016877;28;20033;-77
2024/01/18 02:33:52;;;;;;;2.67;0.90;;;;;;;-2.28;100.00;99478.41;5006753;28;20057;-77
2024/01/18 02:36:20;;;;;;;2.20;0.98;;;;;;;-2.36;100.00;99481.59;4954661;28;20045;-77
2024/01/18 02:38:49;;;;;;;1.30;1.13;;;;;;;-2.42;100.00;99478.81;5007567;28;20475;-77
2024/01/18 02:41:17;;;;;;;4.93;1.48;;;;;;;-2.44;100.00;99479.56;5008823;28;20406;-76
2024/01/18 02:43:45;;;;;;;2.40;1.10;;;;;;;-2.47;100.00;99470.03;4982082;28;20057;-77
2024/01/18 02:46:17;;;;;;;4.00;1.00;;;;;;;-2.50;100.00;99474.22;5017721;28;20049;-77
2024/01/18 02:48:45;;;;;;;3.03;0.80;;;;;;;-2.52;100.00;99469.00;5007970;28;20050;-77
2024/01/18 02:51:13;;;;;;;3.50;0.77;;;;;;;-2.56;100.00;99468.03;5008358;28;20471;-77
2024/01/18 02:53:40;;;;;;;4.63;1.60;;;;;;;-2.58;100.00;99471.38;4970227;28;20482;-76
2024/01/18 02:56:07;;;;;;;4.05;1.10;;;;;;;-2.61;100.00;99472.19;5025215;28;20044;-77
2024/01/18 02:58:35;;;;;;;5.10;1.38;;;;;;;-2.65;100.00;99475.44;5017718;28;20399;-76
2024/01/18 03:01:03;;;;;;;3.33;1.10;;;;;;;-2.67;100.00;99486.53;5018330;28;20040;-79
2024/01/18 03:03:30;;;;;;;1.85;1.00;;;;;;;-2.72;100.00;99475.19;4994612;28;20053;-78
2024/01/18 03:05:58;;;;;;;1.13;0.80;;;;;;;-2.75;100.00;99478.56;5026344;28;20522;-79
2024/01/18 03:08:25;;;;;;;6.35;1.00;;;;;;;-2.77;100.00;99483.66;4977131;28;20060;-78
2024/01/18 03:10:53;;;;;;;4.00;1.00;;;;;;;-2.79;100.00;99498.19;5025865;28;20835;-78
2024/01/18 03:13:20;;;;;;;4.90;1.20;;;;;;;-2.80;100.00;99495.56;5021104;28;20410;-78
2024/01/18 03:15:47;;;;;;;3.58;2.10;;;;;;;-2.80;100.00;99498.13;4994773;28;20046;-78
2024/01/18 03:18:15;;;;;;;5.22;1.95;;;;;;;-2.80;100.00;99495.56;5001331;28;20049;-78
2024/01/18 03:20:42;;;;;;;7.18;2.67;;;;;;;-2.79;100.00;99497.31;5009977;28;20053;-78
2024/01/18 03:23:10;;;;;;;3.25;1.38;;;;;;;-2.78;100.00;99506.78;4969634;28;20046;-78
2024/01/18 03:25:37;;;;;;;3.70;1.27;;;;;;;-2.78;100.00;99499.97;5015259;28;20052;-78
2024/01/18 03:28:05;;;;;;;2.17;1.13;;;;;;;-2.73;100.00;99513.00;5018522;28;20064;-78
2024/01/18 03:30:33;;;;;;;2.45;1.02;;;;;;;-2.69;100.00;99517.44;4994585;28;20061;-78
2024/01/18 03:33:00;;;;;;;2.85;1.27;;;;;;;-2.66;100.00;99520.13;4998574;28;20719;-78
2024/01/18 03:35:28;;;;;;;5.88;1.10;;;;;;;-2.62;100.00;99514.25;5010394;28;20049;-78
2024/01/18 03:37:55;;;;;;;1.55;1.00;;;;;;;-2.57;100.00;99509.22;4989636;28;20080;-78
2024/01/18 03:40:22;;;;;;;2.35;1.23;;;;;;;-2.52;100.00;99512.84;4958960;28;20057;-78
2024/01/18 03:42:50;;;;;;;1.20;0.80;;;;;;;-2.47;100.00;99521.63;5026123;28;20046;-78
2024/01/18 03:45:17;;;;;;;3.85;0.93;;;;;;;-2.41;100.00;99516.69;5002329;28;20058;-78
2024/01/18 03:47:44;;;;;;;5.65;1.40;;;;;;;-2.38;100.00;99519.38;5002779;28;20064;-78
2024/01/18 03:50:14;;;;;;;4.57;1.00;;;;;;;-2.34;100.00;99517.78;5025865;28;20041;-78
2024/01/18 03:52:42;;;;;;;3.85;0.90;;;;;;;-2.31;100.00;99523.03;5009059;28;20041;-78
2024/01/18 03:55:12;;;;;;;4.45;1.00;;;;;;;-2.27;100.00;99534.31;4981081;28;20084;-78
2024/01/18 03:57:40;;;;;;;2.47;1.23;;;;;;;-2.26;100.00;99541.25;5026216;28;20053;-78
2024/01/18 04:00:09;;;;;;;9.13;1.20;;;;;;;-2.23;100.00;99542.25;5000567;28;20049;-78
2024/01/18 04:02:37;;;;;;;1.40;0.98;;;;;;;-2.20;100.00;99537.16;5027076;28;20042;-78
2024/01/18 04:05:05;;;;;;;13.57;5.07;;;;;;;-2.15;100.00;99529.59;5019489;28;20041;-78
2024/01/18 04:07:32;;;;;;;3.67;1.05;;;;;;;-2.13;100.00;99512.44;5028075;28;20041;-78
2024/01/18 04:09:59;;;;;;;3.42;0.70;;;;;;;-2.09;100.00;99503.97;4971829;28;25217;-78
2024/01/18 04:12:27;;;;;;;1.08;0.50;;;;;;;-2.00;100.00;99495.66;5009712;28;20041;-78
2024/01/18 04:14:54;;;;;;;6.03;1.33;;;;;;;-1.93;100.00;99489.81;4999566;28;20072;-78
2024/01/18 04:17:21;;;;;;;5.25;1.85;;;;;;;-1.86;100.00;99490.91;5009351;28;20046;-78
2024/01/18 04:19:49;;;;;;;3.33;1.00;;;;;;;-1.84;100.00;99484.97;5010373;28;20045;-79
2024/01/18 04:22:16;;;;;;;4.25;1.25;;;;;;;-1.83;100.00;99483.28;4997854;28;20057;-78
2024/01/18 04:24:45;;;;;;;5.95;0.93;;;;;;;-1.84;100.00;99497.00;5026720;28;20060;-78
2024/01/18 04:27:12;;;;;;;7.13;1.40;;;;;;;-1.87;100.00;99494.31;4973075;28;20045;-78
2024/01/18 04:29:41;;;;;;;1.42;1.00;;;;;;;-1.92;100.00;99498.47;5006394;28;20351;-78
2024/01/18 04:32:08;;;;;;;2.70;1.20;;;;;;;-1.99;100.00;99508.59;5004176;28;20053;-78
2024/01/18 04:34:37;;;;;;;1.48;0.80;;;;;;;-2.07;100.00;99506.59;5018977;28;20511;-78
2024/01/18 04:37:05;;;;;;;3.13;1.30;;;;;;;-2.18;100.00;99499.38;5006333;28;20053;-78
2024/01/18 04:39:32;;;;;;;4.30;1.35;;;;;;;-2.23;100.00;99502.63;5025602;28;20053;-78
2024/01/18 04:42:00;;;;;;;3.13;1.30;;;;;;;-2.30;100.00;99498.13;4989078;28;20053;-78
2024/01/18 04:44:27;;;;;;;4.30;1.30;;;;;;;-2.38;100.00;99511.63;4996487;28;20161;-78
2024/01/18 04:46:55;;;;;;;1.50;1.00;;;;;;;-2.43;100.00;99509.72;4998605;28;20055;-79
2024/01/18 04:49:23;;;;;;;1.38;1.10;;;;;;;-2.46;100.00;99518.22;5008691;28;20056;-78
2024/01/18 04:51:51;;;;;;;2.85;1.50;;;;;;;-2.49;100.00;99522.44;4997454;28;20053;-78
2024/01/18 04:54:19;;;;;;;2.10;1.00;;;;;;;-2.51;100.00;99521.47;5026884;28;20058;-78
2024/01/18 04:56:47;;;;;;;2.75;1.60;;;;;;;-2.52;100.00;99528.34;4981762;28;20048;-78
2024/01/18 04:59:14;;;;;;;2.53;1.48;;;;;;;-2.52;100.00;99520.59;4996153;28;20048;-78
2024/01/18 05:01:44;;;;;;;2.30;1.40;;;;;;;-2.52;100.00;99517.16;4987501;28;20052;-78
2024/01/18 05:04:11;;;;;;;3.15;0.93;;;;;;;-2.55;100.00;99521.38;5012011;28;20045;-78
2024/01/18 05:06:39;;;;;;;4.30;1.45;;;;;;;-2.57;100.00;99524.72;4997623;28;20506;-78
2024/01/18 05:09:09;;;;;;;2.38;1.17;;;;;;;-2.62;100.00;99527.16;5019452;28;20056;-78
2024/01/18 05:11:37;;;;;;;2.80;1.20;;;;;;;-2.70;100.00;99526.00;5024371;28;20048;-78
2024/01/18 05:14:04;;;;;;;7.60;3.10;;;;;;;-2.75;100.00;99532.69;4982206;28;20060;-78
2024/01/18 05:16:33;;;;;;;8.68;3.97;;;;;;;-2.81;100.00;99533.34;5024037;28;20652;-78
2024/01/18 05:19:00;;;;;;;5.60;2.58;;;;;;;-2.85;100.00;99535.78;5017058;28;20057;-78
2024/01/18 05:21:28;;;;;;;7.90;1.92;;;;;;;-2.92;100.00;99541.53;4999213;28;20554;-78
2024/01/18 05:23:55;;;;;;;2.88;1.60;;;;;;;-2.99;100.00;99543.88;5001779;28;20498;-78
2024/01/18 05:26:23;;;;;;;5.82;1.42;;;;;;;-3.04;100.00;99547.13;5005232;28;20409;-78
2024/01/18 05:28:51;;;;;;;1.83;1.20;;;;;;;-3.11;100.00;99545.16;4989178;28;20097;-76
2024/01/18 05:31:18;;;;;;;2.88;1.17;;;;;;;-3.16;100.00;99550.13;5020913;28;20451;-77
2024/01/18 05:33:46;;;;;;;3.33;1.75;;;;;;;-3.21;100.00;99552.53;5001613;28;20442;-77
2024/01/18 05:36:13;;;;;;;3.42;1.33;;;;;;;-3.26;100.00;99554.03;4982188;28;20049;-76
2024/01/18 05:38:40;;;;;;;4.70;1.73;;;;;;;-3.29;100.00;99553.06;5011482;28;20046;-77
2024/01/18 05:41:09;;;;;;;4.20;1.48;;;;;;;-3.33;100.00;99552.06;4982914;28;20778;-77
2024/01/18 05:43:36;;;;;;;5.22;2.00;;;;;;;-3.36;100.00;99554.53;4973449;28;20052;-76
2024/01/18 05:46:03;;;;;;;3.50;2.22;;;;;;;-3.38;100.00;99558.75;5009307;28;20037;-75
2024/01/18 05:48:31;;;;;;;7.30;1.67;;;;;;;-3.43;100.00;99550.84;5007914;28;20050;-77
2024/01/18 05:50:58;;;;;;;4.00;1.38;;;;;;;-3.44;100.00;99555.91;5013107;28;20053;-76
2024/01/18 05:53:25;;;;;;;7.93;1.75;;;;;;;-3.44;100.00;99561.06;5015590;28;20487;-76
2024/01/18 05:55:53;;;;;;;2.85;1.77;;;;;;;-3.43;100.00;99552.53;4980647;28;20164;-76
2024/01/18 05:58:20;;;;;;;3.22;1.60;;;;;;;-3.41;100.00;99574.06;4993972;28;20046;-76
2024/01/18 06:00:48;;;;;;;3.05;1.38;;;;;;;-3.39;100.00;99586.19;4976919;28;20624;-76
2024/01/18 06:03:15;;;;;;;2.30;1.45;;;;;;;-3.32;100.00;99592.47;5008704;28;20533;-76
2024/01/18 06:05:45;;;;;;;6.80;3.17;;;;;;;-3.25;100.00;99593.56;5014530;28;20059;-76
2024/01/18 06:08:12;;;;;;;7.07;1.70;;;;;;;-3.21;100.00;99598.91;4987727;28;20037;-75
2024/01/18 06:10:41;;;;;;;4.30;1.40;;;;;;;-3.13;100.00;99601.78;4972964;28;20481;-75
2024/01/18 06:13:09;;;;;;;2.75;1.23;;;;;;;-3.02;100.00;99612.50;4991223;28;20048;-75
2024/01/18 06:15:37;;;;;;;5.30;1.75;;;;;;;-2.92;100.00;99617.16;4965805;28;20041;-75
2024/01/18 06:18:05;;;;;;;4.55;1.30;;;;;;;-2.82;100.00;99627.00;4997102;28;20048;-76
2024/01/18 06:20:32;;;;;;;3.30;1.30;;;;;;;-2.70;100.00;99624.00;4987807;28;20045;-75
2024/01/18 06:23:01;;;;;;;3.88;1.10;;;;;;;-2.58;100.00;99613.25;5006720;28;20056;-76
2024/01/18 06:25:28;;;;;;;2.95;1.00;;;;;;;-2.47;100.00;99617.09;5008425;28;20044;-76
2024/01/18 06:27:56;;;;;;;2.15;0.82;;;;;;;-2.33;100.00;99611.53;5003824;28;20046;-75
2024/01/18 06:30:24;;;;;;;3.65;1.00;;;;;;;-2.21;100.00;99614.53;4990699;28;20049;-76
2024/01/18 06:32:51;;;;;;;4.38;1.42;;;;;;;-2.10;100.00;99628.69;4988513;28;20056;-75
2024/01/18 06:35:19;;;;;;;5.07;1.05;;;;;;;-2.03;100.00;99619.47;5015858;28;20053;-76
2024/01/18 06:37:46;;;;;;;3.05;1.00;;;;;;;-1.99;100.00;99618.72;4980658;28;20105;-76
2024/01/18 06:40:15;;;;;;;4.03;1.02;;;;;;;-1.98;100.00;99616.22;4991870;28;20056;-76
2024/01/18 06:42:42;;;;;;;3.88;1.48;;;;;;;-1.97;100.00;99624.81;4997784;28;20487;-76
2024/01/18 06:45:10;;;;;;;3.83;1.20;;;;;;;-1.98;100.00;99623.94;5025869;28;20052;-76
2024/01/18 06:47:37;;;;;;;5.25;1.25;;;;;;;-1.99;100.00;99629.06;4957363;28;20056;-76
2024/01/18 06:50:05;;;;;;;3.08;1.10;;;;;;;-2.02;100.00;99639.31;5025348;28;20042;-76
2024/01/18 06:52:32;;;;;;;3.85;1.00;;;;;;;-2.05;100.00;99640.06;4994030;28;20049;-76
2024/01/18 06:54:59;;;;;;;1.17;0.93;;;;;;;-2.09;100.00;99627.88;4996987;28;20049;-76
2024/01/18 06:57:27;;;;;;;3.92;1.20;;;;;;;-2.11;100.00;99633.81;5020728;28;20041;-76
2024/01/18 06:59:54;;;;;;;1.45;1.10;;;;;;;-2.17;100.00;99639.66;5021148;28;20053;-76
2024/01/18 07:02:22;;;;;;;4.10;1.20;;;;;;;-2.26;100.00;99649.63;5011018;28;20053;-78
2024/01/18 07:04:49;;;;;;;3.25;1.05;;;;;;;-2.33;100.00;99657.97;4995046;28;20053;-76
2024/01/18 07:07:17;;;;;;;5.28;0.93;;;;;;;-2.40;100.00;99674.94;5009418;28;20038;-76
2024/01/18 07:09:45;;;;;;;4.78;1.13;;;;;;;-2.45;100.00;99679.94;4998086;28;20071;-76
2024/01/18 07:12:12;;;;;;;3.95;1.67;;;;;;;-2.50;100.00;99678.00;5025426;28;20052;-76
2024/01/18 07:14:40;;;;;;;1.35;1.00;;;;;;;-2.54;100.00;99679.59;4979033;28;20057;-76
2024/01/18 07:17:07;;;;;;;4.03;0.90;;;;;;;-2.54;100.00;99684.75;5008196;28;20057;-76
2024/01/18 07:19:34;;;;;;;4.22;1.15;;;;;;;-2.56;100.00;99695.00;4963471;28;20045;-78
2024/01/18 07:22:05;;;;;;;;;;;;;;;-2.58;100.00;99694.06;5008035;28;20399;-76
2024/01/18 07:24:33;;;;;;;4.03;1.15;;;;;;;-2.54;100.00;99707.97;4985775;28;20409;-76
2024/01/18 07:27:01;;;;;;;3.40;1.40;;;;;;;-2.46;100.00;99703.09;5007050;28;20052;-76
2024/01/18 07:29:28;;;;;;;5.35;0.90;;;;;;;-2.36;100.00;99700.03;5015909;28;20049;-76
2024/01/18 07:31:55;;;;;;;3.53;1.20;;;;;;;-2.28;100.00;99700.31;5024846;28;20046;-76
2024/01/18 07:34:23;;;;;;;7.18;1.30;;;;;;;-2.24;100.00;99702.19;4990977;28;20056;-76
2024/01/18 07:36:50;;;;;;;2.90;1.00;;;;;;;-2.23;100.00;99701.34;4998038;28;20053;-76
2024/01/18 07:39:18;;;;;;;2.83;1.13;;;;;;;-2.22;100.00;99705.69;5002602;28;20616;-75
2024/01/18 07:41:46;;;;;;;9.85;1.70;;;;;;;-2.22;100.00;99692.78;4987437;28;20057;-76
2024/01/18 07:44:13;;;;;;;1.90;1.45;;;;;;;-2.21;100.00;99708.34;4983966;28;20053;-76
2024/01/18 07:46:40;;;;;;;3.83;1.30;;;;;;;-2.21;100.00;99700.59;5002452;28;20080;-76
2024/01/18 07:49:08;;;;;;;4.25;1.23;;;;;;;-2.24;100.00;99699.59;4991867;28;20054;-76
2024/01/18 07:51:35;;;;;;;4.75;1.50;;;;;;;-2.27;100.00;99702.06;4974274;28;20042;-76
2024/01/18 07:54:04;;;;;;;2.47;1.10;;;;;;;-2.30;100.00;99712.28;5014433;28;20048;-76
2024/01/18 07:56:31;;;;;;;4.18;1.02;;;;;;;-2.32;100.00;99719.09;5011126;28;20068;-78
2024/01/18 07:58:58;;;;;;;2.67;1.27;;;;;;;-2.38;100.00;99709.44;5005695;28;20062;-76
2024/01/18 08:01:26;;;;;;;4.95;1.30;;;;;;;-2.41;100.00;99707.59;4998059;28;20048;-76
2024/01/18 08:03:56;;;;;;;4.97;1.50;;;;;;;-2.46;100.00;99714.28;5023844;28;20533;-77
2024/01/18 08:06:23;;;;;;;3.97;1.90;;;;;;;-2.47;100.00;99724.56;4969112;28;20487;-76
2024/01/18 08:08:50;;;;;;;8.90;1.95;;;;;;;-2.49;100.00;99724.50;5002349;28;20050;-77
2024/01/18 08:11:18;;;;;;;5.70;1.30;;;;;;;-2.47;100.00;99728.03;5022536;28;20037;-76
2024/01/18 08:13:45;;;;;;;5.97;2.00;;;;;;;-2.42;100.00;99733.34;4996050;28;20041;-76
2024/01/18 08:16:13;;;;;;;4.90;1.60;;;;;;;-2.36;100.00;99734.47;4990534;28;20391;-76
2024/01/18 08:18:40;;;;;;;6.70;1.80;;;;;;;-2.28;100.00;99726.13;5012002;28;20061;-76
2024/01/18 08:21:08;;;;;;;5.22;1.70;;;;;;;-2.20;100.00;99727.28;4984726;28;20037;-76
2024/01/18 08:23:37;;;;;;;7.88;2.50;;;;;;;-2.12;100.00;99730.13;4988017;28;20056;-76
2024/01/18 08:26:04;;;;;;;7.20;1.83;;;;;;;-2.09;100.00;99743.16;5007212;28;20056;-77
2024/01/18 08:28:32;;;;;;;7.00;2.00;;;;;;;-2.09;100.00;99744.03;5013025;28;20044;-78
2024/01/18 08:30:59;;;;;;;2.35;1.42;;;;;;;-2.10;100.00;99744.84;5000584;28;20056;-77
2024/01/18 08:33:27;;;;;;;9.77;1.73;;;;;;;-2.10;100.00;99757.75;5024894;28;20041;-78
2024/01/18 08:35:54;;;;;;;4.47;1.30;;;;;;;-2.12;100.00;99761.09;5007437;28;20054;-78
2024/01/18 08:38:22;;;;;;;6.90;1.88;;;;;;;-2.13;100.00;99754.22;4967191;28;20049;-77
2024/01/18 08:40:59;;;;;;;3.55;1.30;;;;;;;-2.13;100.00;99757.66;4996675;28;20080;-77
2024/01/18 08:43:27;;;;;;;5.60;1.73;;;;;;;-2.13;100.00;99759.38;4995102;28;20418;-78
2024/01/18 08:45:57;;;;;;;2.88;1.17;;;;;;;-2.12;100.00;99767.13;5007596;28;20061;-78
2024/01/18 08:48:24;;;;;;;4.68;1.20;;;;;;;-2.06;100.00;99779.41;5018679;28;20045;-78
2024/01/18 08:50:51;;;;;;;3.72;1.30;;;;;;;-2.03;100.00;99784.69;5024443;28;20045;-78
2024/01/18 08:53:21;;;;;;;5.55;1.45;;;;;;;-1.99;100.00;99779.66;4969235;28;20038;-78
2024/01/18 08:55:49;;;;;;;5.85;2.47;;;;;;;-1.96;100.00;99778.94;4996059;28;20061;-77
2024/01/18 08:58:16;;;;;;;5.90;1.40;;;;;;;-1.93;100.00;99788.47;5013362;28;20151;-78
2024/01/18 09:00:43;;;;;;;4.38;1.20;;;;;;;-1.91;100.00;99787.72;5004281;28;20049;-77
2024/01/18 09:03:11;;;;;;;6.47;1.40;;;;;;;-1.89;100.00;99791.25;4981992;28;20057;-77
2024/01/18 09:05:38;;;;;;;4.15;1.20;;;;;;;-1.86;100.00;99795.63;5004782;28;20741;-77
2024/01/18 09:08:05;;;;;;;4.93;1.33;;;;;;;-1.83;100.00;99801.78;4989240;28;20417;-77
2024/01/18 09:10:33;;;;;;;3.17;1.50;;;;;;;-1.79;100.00;99811.41;5020460;28;20045;-78
2024/01/18 09:13:00;;;;;;;6.00;1.40;;;;;;;-1.74;100.00;99802.94;5025169;28;20052;-77
2024/01/18 09:15:28;;;;;;;4.18;1.05;;;;;;;-1.68;100.00;99813.47;4995832;28;20048;-77
2024/01/18 09:17:55;;;;;;;2.42;1.77;;;;;;;-1.65;100.00;99821.34;5001406;28;20053;-77
2024/01/18 09:20:23;;;;;;;2.17;1.23;;;;;;;-1.58;100.00;99819.03;5004033;28;20068;-78
2024/01/18 09:22:50;;;;;;;5.82;1.30;;;;;;;-1.52;100.00;99825.25;4969088;28;20068;-77
2024/01/18 09:25:35;;;;;;;5.15;1.65;;;;;;;-1.47;100.00;99834.91;4994276;28;20056;-77
2024/01/18 09:28:03;;;;;;;2.15;1.65;;;;;;;-1.40;100.00;99829.13;4996797;28;20060;-78
2024/01/18 09:30:30;;;;;;;9.55;1.67;;;;;;;-1.34;100.00;99843.97;5015088;28;20041;-77
2024/01/18 09:32:58;;;;;;;6.50;1.40;;;;;;;-1.29;100.00;99847.59;5004696;28;20060;-78
2024/01/18 09:35:25;;;;;;;4.22;1.88;;;;;;;-1.19;100.00;99838.47;5020911;28;20068;-77
2024/01/18 09:37:53;;;;;;;5.63;1.23;;;;;;;-1.12;100.00;99836.97;5007507;28;20166;-77
2024/01/18 09:40:22;;;;;;;4.57;1.20;;;;;;;-1.05;100.00;99847.56;4964130;28;20056;-78
2024/01/18 09:42:50;;;;;;;2.88;1.80;;;;;;;-0.95;100.00;99856.50;5015116;28;20049;-77
2024/01/18 09:45:26;;;;;;;8.98;2.22;;;;;;;-0.86;100.00;99868.88;4993563;28;20407;-78
2024/01/18 09:47:54;;;;;;;4.68;1.60;;;;;;;-0.75;100.00;99866.66;4993699;28;20053;-77
2024/01/18 09:50:21;;;;;;;3.95;1.58;;;;;;;-0.67;100.00;99872.94;5004270;28;20037;-77
2024/01/18 09:52:49;;;;;;;3.55;1.40;;;;;;;-0.54;100.00;99874.22;4990163;28;20065;-77
2024/01/18 09:55:17;;;;;;;5.47;1.52;;;;;;;-0.41;100.00;99884.13;4965883;28;20414;-77
2024/01/18 09:57:48;;;;;;;4.57;1.55;;;;;;;-0.22;100.00;99899.41;5006182;28;20052;-77
2024/01/18 10:00:21;;;;;;;5.70;1.42;;;;;;;0.10;100.00;99912.47;4976742;28;20057;-77
2024/01/18 10:02:50;;;;;;;3.47;1.42;;;;;;;0.39;100.00;99913.31;5023613;28;20423;-77
2024/01/18 10:05:18;;;;;;;4.68;1.40;;;;;;;0.61;100.00;99913.09;4996259;28;20053;-77
2024/01/18 10:07:46;;;;;;;4.07;1.20;;;;;;;0.70;100.00;99919.41;5030389;28;20060;-77
2024/01/18 10:10:15;;;;;;;8.15;1.33;;;;;;;0.71;100.00;99902.13;4964312;28;20430;-77
2024/01/18 10:12:42;;;;;;;4.85;1.00;;;;;;;0.68;100.00;99904.63;5023133;28;20060;-77
2024/01/18 10:15:10;;;;;;;4.72;1.20;;;;;;;0.67;100.00;99902.88;5011932;28;20057;-78
2024/01/18 10:17:41;;;;;;;1.92;1.13;;;;;;;0.69;100.00;99909.00;4997197;28;20045;-77
2024/01/18 10:20:13;;;;;;;4.82;1.10;;;;;;;0.68;100.00;99921.09;4994882;28;20044;-77
2024/01/18 10:22:43;;;;;;;3.83;0.98;;;;;;;0.67;100.00;99916.72;5005783;28;20056;-77
2024/01/18 10:25:13;;;;;;;2.20;0.73;;;;;;;0.67;100.00;99934.00;4962986;28;20050;-77
2024/01/18 10:27:42;;;;;;;6.53;0.90;;;;;;;0.67;100.00;99944.38;5008267;28;20053;-77
2024/01/18 10:30:12;;;;;;;1999.90;335.88;;;;;;;0.75;100.00;99955.81;4999313;28;20053;-78
2024/01/18 10:32:39;;;;;;;814.38;53.50;;;;;;;0.94;100.00;99950.31;5010013;28;20037;-78
2024/01/18 10:35:19;;;;;;;1121.22;79.72;;;;;;;1.05;100.00;99953.22;4988743;28;20063;-78
2024/01/18 10:37:48;;;;;;;1667.15;124.25;;;;;;;1.15;100.00;99960.41;4998185;28;20053;-75
2024/01/18 10:40:19;;;;;;;1999.90;367.50;;;;;;;1.35;100.00;99968.72;4990638;28;20486;-78
2024/01/18 10:42:46;;;;;;;1125.15;86.93;;;;;;;1.43;100.00;99979.31;5029204;28;20060;-78
2024/01/18 10:45:15;;;;;;;1999.90;341.70;;;;;;;1.40;100.00;99981.84;5018077;28;20068;-77
2024/01/18 10:47:44;;;;;;;1999.90;371.88;;;;;;;1.48;100.00;99984.63;5006421;28;20052;-78
2024/01/18 10:50:11;;;;;;;15.00;4.85;;;;;;;1.60;100.00;99984.06;5001498;28;20057;-78
2024/01/18 10:52:40;;;;;;;4.72;1.25;;;;;;;1.51;100.00;99985.59;5008476;28;20049;-77
2024/01/18 10:55:12;;;;;;;2.92;1.35;;;;;;;1.38;100.00;99993.00;5009314;28;20052;-77
2024/01/18 10:57:40;;;;;;;7.25;1.70;;;;;;;1.32;100.00;99994.63;4969340;28;20037;-78
2024/01/18 11:00:08;;;;;;;2.72;1.70;;;;;;;1.27;100.00;99998.78;5022260;28;20337;-78
2024/01/18 11:02:40;;;;;;;6.05;2.33;;;;;;;1.22;100.00;99997.78;4997226;28;20107;-77
2024/01/18 11:05:12;;;;;;;7.03;2.20;;;;;;;1.17;100.00;100007.16;4990089;28;20502;-78
2024/01/18 11:07:40;;;;;;;6.47;1.73;;;;;;;1.11;100.00;100026.03;5017190;28;20053;-77
2024/01/18 11:10:13;;;;;;;2.10;1.10;;;;;;;1.09;100.00;100019.91;5007742;28;20079;-78
2024/01/18 11:12:43;;;;;;;4.00;0.90;;;;;;;1.04;100.00;100023.22;4971711;28;20045;-77
2024/01/18 11:15:13;;;;;;;2.35;0.98;;;;;;;0.93;100.00;100016.03;5010129;28;20048;-78
2024/01/18 11:17:48;;;;;;;2.78;0.80;;;;;;;0.86;100.00;100015.81;5020977;28;20045;-76
2024/01/18 11:20:16;;;;;;;8.23;1.77;;;;;;;0.87;100.00;100017.53;5021731;28;20418;-77
2024/01/18 11:22:45;;;;;;;6.35;1.25;;;;;;;0.91;100.00;100022.00;5009778;28;20050;-77
2024/01/18 11:25:19;;;;;;;3.40;0.80;;;;;;;0.95;100.00;100014.34;4997772;28;20060;-78
2024/01/18 11:27:46;;;;;;;3.45;0.98;;;;;;;1.02;100.00;100027.47;4992722;28;20056;-77